sensor_id;sensor_type;location;lat;lon;timestamp;temperature;humidity
17998;DHT22;9124;48.144;17.098;2023-02-21T00:00:59;8.50;71.20
17998;DHT22;9124;48.144;17.098;2023-02-21T00:04:54;8.50;71.20
17998;DHT22;9124;48.144;17.098;2023-02-21T00:08:49;8.50;71.40
17998;DHT22;9124;48.144;17.098;2023-02-21T00:12:43;8.40;71.40
17998;DHT22;9124;48.144;17.098;2023-02-21T00:16:38;8.30;71.90
17998;DHT22;9124;48.144;17.098;2023-02-21T00:20:33;8.20;71.90
17998;DHT22;9124;48.144;17.098;2023-02-21T00:24:28;8.20;72.10
17998;DHT22;9124;48.144;17.098;2023-02-21T00:28:23;8.10;72.20
17998;DHT22;9124;48.144;17.098;2023-02-21T00:32:18;8.00;72.30
17998;DHT22;9124;48.144;17.098;2023-02-21T00:36:15;7.90;72.50
17998;DHT22;9124;48.144;17.098;2023-02-21T00:40:12;7.70;72.50
17998;DHT22;9124;48.144;17.098;2023-02-21T00:44:07;7.50;72.70
17998;DHT22;9124;48.144;17.098;2023-02-21T00:48:02;7.40;73.10
17998;DHT22;9124;48.144;17.098;2023-02-21T00:51:56;7.30;73.10
17998;DHT22;9124;48.144;17.098;2023-02-21T00:55:52;7.20;73.30
17998;DHT22;9124;48.144;17.098;2023-02-21T00:59:46;7.00;73.50
17998;DHT22;9124;48.144;17.098;2023-02-21T01:03:41;6.80;73.60
17998;DHT22;9124;48.144;17.098;2023-02-21T01:07:37;6.70;73.90
17998;DHT22;9124;48.144;17.098;2023-02-21T01:11:32;6.60;74.80
17998;DHT22;9124;48.144;17.098;2023-02-21T01:15:27;6.80;75.40
17998;DHT22;9124;48.144;17.098;2023-02-21T01:19:25;6.80;75.00
17998;DHT22;9124;48.144;17.098;2023-02-21T01:23:20;6.60;75.00
17998;DHT22;9124;48.144;17.098;2023-02-21T01:27:15;6.60;75.20
17998;DHT22;9124;48.144;17.098;2023-02-21T01:31:10;6.40;75.90
17998;DHT22;9124;48.144;17.098;2023-02-21T01:35:05;6.30;75.50
17998;DHT22;9124;48.144;17.098;2023-02-21T01:39:01;6.20;75.70
17998;DHT22;9124;48.144;17.098;2023-02-21T01:42:56;6.20;75.90
17998;DHT22;9124;48.144;17.098;2023-02-21T01:46:51;6.10;76.10
17998;DHT22;9124;48.144;17.098;2023-02-21T01:50:45;6.20;76.40
17998;DHT22;9124;48.144;17.098;2023-02-21T01:54:45;6.30;76.60
17998;DHT22;9124;48.144;17.098;2023-02-21T01:58:41;6.40;76.70
17998;DHT22;9124;48.144;17.098;2023-02-21T02:06:35;6.30;76.90
17998;DHT22;9124;48.144;17.098;2023-02-21T02:10:31;6.30;77.00
17998;DHT22;9124;48.144;17.098;2023-02-21T02:34:59;5.90;78.10
17998;DHT22;9124;48.144;17.098;2023-02-21T02:38:56;5.90;78.30
17998;DHT22;9124;48.144;17.098;2023-02-21T02:46:22;5.90;78.80
17998;DHT22;9124;48.144;17.098;2023-02-21T02:50:03;5.80;78.90
17998;DHT22;9124;48.144;17.098;2023-02-21T02:53:41;5.80;79.10
17998;DHT22;9124;48.144;17.098;2023-02-21T02:57:17;5.90;79.40
17998;DHT22;9124;48.144;17.098;2023-02-21T03:13:04;5.70;80.00
17998;DHT22;9124;48.144;17.098;2023-02-21T03:16:53;5.70;80.30
17998;DHT22;9124;48.144;17.098;2023-02-21T03:20:32;5.70;80.60
17998;DHT22;9124;48.144;17.098;2023-02-21T03:24:10;5.70;80.70
17998;DHT22;9124;48.144;17.098;2023-02-21T03:27:50;5.80;81.30
17998;DHT22;9124;48.144;17.098;2023-02-21T03:31:44;6.00;81.50
17998;DHT22;9124;48.144;17.098;2023-02-21T03:35:22;6.20;81.60
17998;DHT22;9124;48.144;17.098;2023-02-21T03:38:59;6.20;81.30
17998;DHT22;9124;48.144;17.098;2023-02-21T03:42:37;6.30;81.40
17998;DHT22;9124;48.144;17.098;2023-02-21T03:46:14;6.40;81.70
17998;DHT22;9124;48.144;17.098;2023-02-21T03:49:50;6.60;81.80
17998;DHT22;9124;48.144;17.098;2023-02-21T03:53:28;6.70;81.70
17998;DHT22;9124;48.144;17.098;2023-02-21T03:57:04;6.70;81.60
17998;DHT22;9124;48.144;17.098;2023-02-21T04:00:48;6.60;81.50
17998;DHT22;9124;48.144;17.098;2023-02-21T04:04:26;6.50;81.60
17998;DHT22;9124;48.144;17.098;2023-02-21T04:08:13;6.30;81.70
17998;DHT22;9124;48.144;17.098;2023-02-21T04:11:50;6.20;81.90
17998;DHT22;9124;48.144;17.098;2023-02-21T04:15:26;6.10;82.20
17998;DHT22;9124;48.144;17.098;2023-02-21T04:19:03;6.10;82.40
17998;DHT22;9124;48.144;17.098;2023-02-21T04:22:40;6.00;82.50
17998;DHT22;9124;48.144;17.098;2023-02-21T04:26:16;6.10;82.80
17998;DHT22;9124;48.144;17.098;2023-02-21T04:29:59;6.20;83.00
17998;DHT22;9124;48.144;17.098;2023-02-21T04:33:35;6.30;83.00
17998;DHT22;9124;48.144;17.098;2023-02-21T04:37:13;6.30;83.00
17998;DHT22;9124;48.144;17.098;2023-02-21T04:40:52;6.20;83.00
17998;DHT22;9124;48.144;17.098;2023-02-21T04:44:28;6.20;83.20
17998;DHT22;9124;48.144;17.098;2023-02-21T04:48:04;6.20;83.50
17998;DHT22;9124;48.144;17.098;2023-02-21T04:51:41;6.20;83.50
17998;DHT22;9124;48.144;17.098;2023-02-21T04:55:17;6.20;83.50
17998;DHT22;9124;48.144;17.098;2023-02-21T04:58:54;6.20;83.70
17998;DHT22;9124;48.144;17.098;2023-02-21T05:02:30;6.10;83.80
17998;DHT22;9124;48.144;17.098;2023-02-21T05:06:07;6.10;84.10
17998;DHT22;9124;48.144;17.098;2023-02-21T05:09:43;6.00;84.30
17998;DHT22;9124;48.144;17.098;2023-02-21T05:13:20;6.00;85.00
17998;DHT22;9124;48.144;17.098;2023-02-21T05:16:57;6.00;84.70
17998;DHT22;9124;48.144;17.098;2023-02-21T05:20:34;6.00;84.90
17998;DHT22;9124;48.144;17.098;2023-02-21T05:24:10;6.00;84.90
17998;DHT22;9124;48.144;17.098;2023-02-21T05:27:47;6.00;85.00
17998;DHT22;9124;48.144;17.098;2023-02-21T05:31:23;5.90;85.20
17998;DHT22;9124;48.144;17.098;2023-02-21T05:35:00;5.90;85.50
17998;DHT22;9124;48.144;17.098;2023-02-21T05:38:51;5.90;85.70
17998;DHT22;9124;48.144;17.098;2023-02-21T05:42:28;5.80;85.90
17998;DHT22;9124;48.144;17.098;2023-02-21T05:46:04;5.80;85.90
17998;DHT22;9124;48.144;17.098;2023-02-21T05:49:41;5.70;86.00
17998;DHT22;9124;48.144;17.098;2023-02-21T05:53:17;5.60;86.30
17998;DHT22;9124;48.144;17.098;2023-02-21T05:56:54;5.60;86.60
17998;DHT22;9124;48.144;17.098;2023-02-21T06:00:30;5.70;87.00
17998;DHT22;9124;48.144;17.098;2023-02-21T06:04:07;5.70;87.00
17998;DHT22;9124;48.144;17.098;2023-02-21T06:07:44;5.60;87.10
17998;DHT22;9124;48.144;17.098;2023-02-21T06:11:28;5.60;87.40
17998;DHT22;9124;48.144;17.098;2023-02-21T06:15:06;5.60;87.80
17998;DHT22;9124;48.144;17.098;2023-02-21T06:18:42;5.60;87.90
17998;DHT22;9124;48.144;17.098;2023-02-21T06:22:19;5.70;88.20
17998;DHT22;9124;48.144;17.098;2023-02-21T06:25:55;5.80;88.40
17998;DHT22;9124;48.144;17.098;2023-02-21T06:29:32;5.90;88.70
17998;DHT22;9124;48.144;17.098;2023-02-21T06:33:08;6.20;89.20
17998;DHT22;9124;48.144;17.098;2023-02-21T06:36:44;6.40;89.40
17998;DHT22;9124;48.144;17.098;2023-02-21T06:40:21;6.60;89.40
17998;DHT22;9124;48.144;17.098;2023-02-21T06:43:58;6.90;89.40
17998;DHT22;9124;48.144;17.098;2023-02-21T06:47:34;7.10;89.30
17998;DHT22;9124;48.144;17.098;2023-02-21T06:51:11;7.30;89.30
17998;DHT22;9124;48.144;17.098;2023-02-21T06:54:50;7.40;89.10
17998;DHT22;9124;48.144;17.098;2023-02-21T06:58:27;7.50;88.90
17998;DHT22;9124;48.144;17.098;2023-02-21T07:02:03;7.60;88.70
17998;DHT22;9124;48.144;17.098;2023-02-21T07:05:40;7.60;88.60
17998;DHT22;9124;48.144;17.098;2023-02-21T07:09:16;7.60;88.50
17998;DHT22;9124;48.144;17.098;2023-02-21T07:12:53;7.60;88.60
17998;DHT22;9124;48.144;17.098;2023-02-21T07:16:30;7.70;88.70
17998;DHT22;9124;48.144;17.098;2023-02-21T07:20:06;7.70;88.60
17998;DHT22;9124;48.144;17.098;2023-02-21T07:23:44;7.90;88.80
17998;DHT22;9124;48.144;17.098;2023-02-21T07:27:21;8.00;88.70
17998;DHT22;9124;48.144;17.098;2023-02-21T07:30:57;8.00;88.60
17998;DHT22;9124;48.144;17.098;2023-02-21T07:34:33;8.00;88.40
17998;DHT22;9124;48.144;17.098;2023-02-21T07:38:10;8.10;88.40
17998;DHT22;9124;48.144;17.098;2023-02-21T07:41:54;8.10;88.40
17998;DHT22;9124;48.144;17.098;2023-02-21T07:45:38;8.20;88.40
17998;DHT22;9124;48.144;17.098;2023-02-21T07:49:15;8.50;88.50
17998;DHT22;9124;48.144;17.098;2023-02-21T07:52:51;8.80;88.40
17998;DHT22;9124;48.144;17.098;2023-02-21T07:56:27;9.20;88.10
17998;DHT22;9124;48.144;17.098;2023-02-21T08:00:04;9.40;87.80
17998;DHT22;9124;48.144;17.098;2023-02-21T08:03:49;9.60;87.30
17998;DHT22;9124;48.144;17.098;2023-02-21T08:07:25;9.90;87.20
17998;DHT22;9124;48.144;17.098;2023-02-21T08:11:02;10.10;86.90
17998;DHT22;9124;48.144;17.098;2023-02-21T08:14:38;10.30;86.60
17998;DHT22;9124;48.144;17.098;2023-02-21T08:18:17;10.40;86.30
17998;DHT22;9124;48.144;17.098;2023-02-21T08:21:54;10.90;86.60
17998;DHT22;9124;48.144;17.098;2023-02-21T08:25:30;11.60;86.40
17998;DHT22;9124;48.144;17.098;2023-02-21T08:29:08;12.20;85.50
17998;DHT22;9124;48.144;17.098;2023-02-21T08:32:44;12.70;84.70
17998;DHT22;9124;48.144;17.098;2023-02-21T08:36:33;13.10;83.50
17998;DHT22;9124;48.144;17.098;2023-02-21T08:40:10;13.50;82.10
17998;DHT22;9124;48.144;17.098;2023-02-21T08:43:47;15.70;83.90
17998;DHT22;9124;48.144;17.098;2023-02-21T08:47:23;18.50;83.90
17998;DHT22;9124;48.144;17.098;2023-02-21T08:51:00;21.30;80.30
17998;DHT22;9124;48.144;17.098;2023-02-21T08:54:39;23.90;76.40
17998;DHT22;9124;48.144;17.098;2023-02-21T08:58:16;25.40;68.60
17998;DHT22;9124;48.144;17.098;2023-02-21T09:01:52;27.20;65.40
17998;DHT22;9124;48.144;17.098;2023-02-21T09:05:29;27.50;59.50
17998;DHT22;9124;48.144;17.098;2023-02-21T09:09:06;28.50;57.90
17998;DHT22;9124;48.144;17.098;2023-02-21T09:12:43;29.60;55.70
17998;DHT22;9124;48.144;17.098;2023-02-21T09:16:19;29.70;53.40
17998;DHT22;9124;48.144;17.098;2023-02-21T09:19:56;30.00;51.10
17998;DHT22;9124;48.144;17.098;2023-02-21T09:23:32;30.40;48.60
17998;DHT22;9124;48.144;17.098;2023-02-21T09:27:09;30.70;46.70
17998;DHT22;9124;48.144;17.098;2023-02-21T09:30:46;30.70;44.80
17998;DHT22;9124;48.144;17.098;2023-02-21T09:34:23;30.70;44.10
17998;DHT22;9124;48.144;17.098;2023-02-21T09:38:00;31.40;43.70
17998;DHT22;9124;48.144;17.098;2023-02-21T09:41:37;31.70;42.10
17998;DHT22;9124;48.144;17.098;2023-02-21T09:45:16;31.50;41.40
17998;DHT22;9124;48.144;17.098;2023-02-21T09:48:54;31.50;40.30
17998;DHT22;9124;48.144;17.098;2023-02-21T09:52:37;31.50;39.30
17998;DHT22;9124;48.144;17.098;2023-02-21T10:00:01;31.90;37.60
17998;DHT22;9124;48.144;17.098;2023-02-21T10:03:42;31.80;37.50
17998;DHT22;9124;48.144;17.098;2023-02-21T10:07:44;32.50;37.10
17998;DHT22;9124;48.144;17.098;2023-02-21T10:11:32;33.30;36.90
17998;DHT22;9124;48.144;17.098;2023-02-21T10:16:10;33.60;35.60
17998;DHT22;9124;48.144;17.098;2023-02-21T10:20:00;33.40;35.20
17998;DHT22;9124;48.144;17.098;2023-02-21T10:23:41;33.00;33.80
17998;DHT22;9124;48.144;17.098;2023-02-21T10:27:21;33.60;34.10
17998;DHT22;9124;48.144;17.098;2023-02-21T10:31:02;33.80;33.60
17998;DHT22;9124;48.144;17.098;2023-02-21T10:34:40;33.60;32.70
17998;DHT22;9124;48.144;17.098;2023-02-21T10:38:22;33.20;32.90
17998;DHT22;9124;48.144;17.098;2023-02-21T10:42:00;33.80;33.20
17998;DHT22;9124;48.144;17.098;2023-02-21T10:50:05;34.30;31.50
17998;DHT22;9124;48.144;17.098;2023-02-21T10:53:47;34.00;31.50
17998;DHT22;9124;48.144;17.098;2023-02-21T10:57:23;33.30;31.00
17998;DHT22;9124;48.144;17.098;2023-02-21T11:01:19;32.10;31.10
17998;DHT22;9124;48.144;17.098;2023-02-21T11:08:47;31.00;31.60
17998;DHT22;9124;48.144;17.098;2023-02-21T11:12:25;30.70;31.70
17998;DHT22;9124;48.144;17.098;2023-02-21T11:16:15;30.40;31.90
17998;DHT22;9124;48.144;17.098;2023-02-21T11:20:17;30.30;32.10
17998;DHT22;9124;48.144;17.098;2023-02-21T11:23:58;30.20;31.90
17998;DHT22;9124;48.144;17.098;2023-02-21T11:27:38;29.60;31.90
17998;DHT22;9124;48.144;17.098;2023-02-21T11:31:26;29.50;32.20
17998;DHT22;9124;48.144;17.098;2023-02-21T11:42:42;27.80;31.40
17998;DHT22;9124;48.144;17.098;2023-02-21T11:46:39;24.90;32.10
17998;DHT22;9124;48.144;17.098;2023-02-21T11:50:29;22.30;34.30
17998;DHT22;9124;48.144;17.098;2023-02-21T11:54:08;20.80;35.60
17998;DHT22;9124;48.144;17.098;2023-02-21T11:58:05;19.90;36.70
17998;DHT22;9124;48.144;17.098;2023-02-21T12:05:54;18.60;38.60
17998;DHT22;9124;48.144;17.098;2023-02-21T12:25:10;17.90;40.90
17998;DHT22;9124;48.144;17.098;2023-02-21T12:29:16;17.80;41.30
17998;DHT22;9124;48.144;17.098;2023-02-21T12:36:52;17.40;42.20
17998;DHT22;9124;48.144;17.098;2023-02-21T12:47:56;16.90;43.60
17998;DHT22;9124;48.144;17.098;2023-02-21T12:51:43;16.90;43.80
17998;DHT22;9124;48.144;17.098;2023-02-21T12:55:25;16.90;44.20
17998;DHT22;9124;48.144;17.098;2023-02-21T12:59:26;16.90;44.30
17998;DHT22;9124;48.144;17.098;2023-02-21T13:18:56;16.10;46.20
17998;DHT22;9124;48.144;17.098;2023-02-21T13:27:45;15.70;46.80
17998;DHT22;9124;48.144;17.098;2023-02-21T13:31:27;15.50;47.00
17998;DHT22;9124;48.144;17.098;2023-02-21T13:35:07;15.40;47.20
17998;DHT22;9124;48.144;17.098;2023-02-21T13:38:44;15.40;47.50
17998;DHT22;9124;48.144;17.098;2023-02-21T13:42:24;15.50;47.70
17998;DHT22;9124;48.144;17.098;2023-02-21T13:46:24;15.60;47.90
17998;DHT22;9124;48.144;17.098;2023-02-21T13:54:11;15.60;48.50
17998;DHT22;9124;48.144;17.098;2023-02-21T14:02:22;15.80;49.00
17998;DHT22;9124;48.144;17.098;2023-02-21T14:09:45;15.70;49.00
17998;DHT22;9124;48.144;17.098;2023-02-21T14:17:13;15.80;49.70
17998;DHT22;9124;48.144;17.098;2023-02-21T14:20:53;16.00;49.70
17998;DHT22;9124;48.144;17.098;2023-02-21T14:24:36;16.00;49.70
17998;DHT22;9124;48.144;17.098;2023-02-21T14:28:57;16.00;49.80
17998;DHT22;9124;48.144;17.098;2023-02-21T14:32:46;15.90;49.90
17998;DHT22;9124;48.144;17.098;2023-02-21T14:36:28;15.60;50.10
17998;DHT22;9124;48.144;17.098;2023-02-21T14:43:54;15.30;50.40
17998;DHT22;9124;48.144;17.098;2023-02-21T14:55:43;15.40;51.00
17998;DHT22;9124;48.144;17.098;2023-02-21T15:03:24;15.40;51.20
17998;DHT22;9124;48.144;17.098;2023-02-21T15:07:31;15.30;51.40
17998;DHT22;9124;48.144;17.098;2023-02-21T15:15:01;15.00;51.70
17998;DHT22;9124;48.144;17.098;2023-02-21T15:18:57;14.70;51.60
17998;DHT22;9124;48.144;17.098;2023-02-21T15:22:35;14.50;51.90
17998;DHT22;9124;48.144;17.098;2023-02-21T15:26:21;14.40;52.10
17998;DHT22;9124;48.144;17.098;2023-02-21T15:33:51;14.20;52.80
17998;DHT22;9124;48.144;17.098;2023-02-21T15:37:29;14.20;52.80
17998;DHT22;9124;48.144;17.098;2023-02-21T15:41:39;14.10;53.00
17998;DHT22;9124;48.144;17.098;2023-02-21T15:45:43;13.90;53.40
17998;DHT22;9124;48.144;17.098;2023-02-21T15:49:26;13.80;53.50
17998;DHT22;9124;48.144;17.098;2023-02-21T15:57:01;13.50;54.10
17998;DHT22;9124;48.144;17.098;2023-02-21T16:00:45;13.40;54.50
17998;DHT22;9124;48.144;17.098;2023-02-21T16:04:22;13.20;54.50
17998;DHT22;9124;48.144;17.098;2023-02-21T16:08:03;13.00;54.70
17998;DHT22;9124;48.144;17.098;2023-02-21T16:11:49;12.90;55.30
17998;DHT22;9124;48.144;17.098;2023-02-21T16:15:32;12.70;55.50
17998;DHT22;9124;48.144;17.098;2023-02-21T16:19:10;12.50;55.60
17998;DHT22;9124;48.144;17.098;2023-02-21T16:23:10;12.40;56.20
17998;DHT22;9124;48.144;17.098;2023-02-21T16:27:05;12.30;56.30
17998;DHT22;9124;48.144;17.098;2023-02-21T16:30:44;12.10;56.50
17998;DHT22;9124;48.144;17.098;2023-02-21T16:34:20;12.00;56.50
17998;DHT22;9124;48.144;17.098;2023-02-21T16:37:58;11.80;56.60
17998;DHT22;9124;48.144;17.098;2023-02-21T16:41:35;11.70;56.80
17998;DHT22;9124;48.144;17.098;2023-02-21T16:45:11;11.70;57.10
17998;DHT22;9124;48.144;17.098;2023-02-21T16:48:48;11.60;57.10
17998;DHT22;9124;48.144;17.098;2023-02-21T16:52:24;11.50;57.30
17998;DHT22;9124;48.144;17.098;2023-02-21T16:56:04;11.60;57.70
17998;DHT22;9124;48.144;17.098;2023-02-21T16:59:41;11.60;57.80
17998;DHT22;9124;48.144;17.098;2023-02-21T17:03:17;11.60;57.90
17998;DHT22;9124;48.144;17.098;2023-02-21T17:06:56;11.60;58.10
17998;DHT22;9124;48.144;17.098;2023-02-21T17:10:33;11.60;58.30
17998;DHT22;9124;48.144;17.098;2023-02-21T17:14:10;11.50;58.40
17998;DHT22;9124;48.144;17.098;2023-02-21T17:17:46;11.40;58.30
17998;DHT22;9124;48.144;17.098;2023-02-21T17:21:23;11.30;58.50
17998;DHT22;9124;48.144;17.098;2023-02-21T17:24:59;11.30;58.60
17998;DHT22;9124;48.144;17.098;2023-02-21T17:28:38;11.20;58.70
17998;DHT22;9124;48.144;17.098;2023-02-21T17:32:15;11.20;59.30
17998;DHT22;9124;48.144;17.098;2023-02-21T17:35:52;11.30;59.30
17998;DHT22;9124;48.144;17.098;2023-02-21T17:39:29;11.40;59.30
17998;DHT22;9124;48.144;17.098;2023-02-21T17:43:05;11.60;59.40
17998;DHT22;9124;48.144;17.098;2023-02-21T17:46:48;11.70;59.50
17998;DHT22;9124;48.144;17.098;2023-02-21T17:50:25;11.80;59.70
17998;DHT22;9124;48.144;17.098;2023-02-21T17:54:01;11.90;59.70
17998;DHT22;9124;48.144;17.098;2023-02-21T17:57:38;11.90;59.70
17998;DHT22;9124;48.144;17.098;2023-02-21T18:01:17;12.00;59.80
17998;DHT22;9124;48.144;17.098;2023-02-21T18:04:59;12.00;60.00
17998;DHT22;9124;48.144;17.098;2023-02-21T18:08:36;12.10;60.00
17998;DHT22;9124;48.144;17.098;2023-02-21T18:12:12;12.10;60.20
17998;DHT22;9124;48.144;17.098;2023-02-21T18:15:49;12.10;60.20
17998;DHT22;9124;48.144;17.098;2023-02-21T18:19:25;12.10;60.80
17998;DHT22;9124;48.144;17.098;2023-02-21T18:23:02;12.10;60.20
17998;DHT22;9124;48.144;17.098;2023-02-21T18:26:39;12.10;60.30
17998;DHT22;9124;48.144;17.098;2023-02-21T18:30:18;12.10;60.40
17998;DHT22;9124;48.144;17.098;2023-02-21T18:33:54;12.10;60.60
17998;DHT22;9124;48.144;17.098;2023-02-21T18:37:31;12.00;60.60
17998;DHT22;9124;48.144;17.098;2023-02-21T18:41:12;12.00;60.60
17998;DHT22;9124;48.144;17.098;2023-02-21T18:44:50;12.00;60.90
17998;DHT22;9124;48.144;17.098;2023-02-21T18:48:26;12.00;60.90
17998;DHT22;9124;48.144;17.098;2023-02-21T18:52:04;12.00;60.90
17998;DHT22;9124;48.144;17.098;2023-02-21T18:55:42;12.00;61.10
17998;DHT22;9124;48.144;17.098;2023-02-21T18:59:20;11.90;61.70
17998;DHT22;9124;48.144;17.098;2023-02-21T19:02:56;11.90;61.20
17998;DHT22;9124;48.144;17.098;2023-02-21T19:06:33;11.90;61.90
17998;DHT22;9124;48.144;17.098;2023-02-21T19:10:11;11.90;61.40
17998;DHT22;9124;48.144;17.098;2023-02-21T19:13:48;11.90;61.50
17998;DHT22;9124;48.144;17.098;2023-02-21T19:17:25;11.90;61.60
17998;DHT22;9124;48.144;17.098;2023-02-21T19:21:01;11.90;61.60
17998;DHT22;9124;48.144;17.098;2023-02-21T19:24:38;11.90;61.70
17998;DHT22;9124;48.144;17.098;2023-02-21T19:28:14;11.80;61.80
17998;DHT22;9124;48.144;17.098;2023-02-21T19:31:50;11.90;61.90
17998;DHT22;9124;48.144;17.098;2023-02-21T19:35:31;11.90;62.00
17998;DHT22;9124;48.144;17.098;2023-02-21T19:39:08;11.90;62.20
17998;DHT22;9124;48.144;17.098;2023-02-21T19:42:45;11.90;62.20
17998;DHT22;9124;48.144;17.098;2023-02-21T19:46:27;11.90;62.20
17998;DHT22;9124;48.144;17.098;2023-02-21T19:50:04;11.90;62.20
17998;DHT22;9124;48.144;17.098;2023-02-21T19:53:41;11.90;62.30
17998;DHT22;9124;48.144;17.098;2023-02-21T19:57:17;11.90;62.90
17998;DHT22;9124;48.144;17.098;2023-02-21T20:00:53;11.90;62.40
17998;DHT22;9124;48.144;17.098;2023-02-21T20:04:30;11.90;62.40
17998;DHT22;9124;48.144;17.098;2023-02-21T20:08:06;11.90;62.50
17998;DHT22;9124;48.144;17.098;2023-02-21T20:11:43;11.90;62.60
17998;DHT22;9124;48.144;17.098;2023-02-21T20:15:20;11.80;62.70
17998;DHT22;9124;48.144;17.098;2023-02-21T20:18:56;11.80;62.80
17998;DHT22;9124;48.144;17.098;2023-02-21T20:22:33;11.70;62.90
17998;DHT22;9124;48.144;17.098;2023-02-21T20:26:13;11.70;62.90
17998;DHT22;9124;48.144;17.098;2023-02-21T20:29:50;11.70;63.20
17998;DHT22;9124;48.144;17.098;2023-02-21T20:33:27;11.70;63.20
17998;DHT22;9124;48.144;17.098;2023-02-21T20:37:03;11.60;63.30
17998;DHT22;9124;48.144;17.098;2023-02-21T20:40:39;11.60;63.50
17998;DHT22;9124;48.144;17.098;2023-02-21T20:44:16;11.60;63.90
17998;DHT22;9124;48.144;17.098;2023-02-21T20:47:52;11.50;63.70
17998;DHT22;9124;48.144;17.098;2023-02-21T20:51:35;11.50;63.80
17998;DHT22;9124;48.144;17.098;2023-02-21T20:55:14;11.40;64.00
17998;DHT22;9124;48.144;17.098;2023-02-21T20:58:54;11.30;64.10
17998;DHT22;9124;48.144;17.098;2023-02-21T21:02:30;11.20;64.20
17998;DHT22;9124;48.144;17.098;2023-02-21T21:06:10;11.10;64.20
17998;DHT22;9124;48.144;17.098;2023-02-21T21:09:47;11.00;64.50
17998;DHT22;9124;48.144;17.098;2023-02-21T21:13:23;10.90;64.60
17998;DHT22;9124;48.144;17.098;2023-02-21T21:17:00;10.90;65.00
17998;DHT22;9124;48.144;17.098;2023-02-21T21:20:37;10.80;65.20
17998;DHT22;9124;48.144;17.098;2023-02-21T21:24:14;10.80;65.30
17998;DHT22;9124;48.144;17.098;2023-02-21T21:27:50;10.70;65.50
17998;DHT22;9124;48.144;17.098;2023-02-21T21:31:26;10.70;65.70
17998;DHT22;9124;48.144;17.098;2023-02-21T21:35:03;10.70;65.70
17998;DHT22;9124;48.144;17.098;2023-02-21T21:38:42;10.60;65.80
17998;DHT22;9124;48.144;17.098;2023-02-21T21:42:23;10.50;66.00
17998;DHT22;9124;48.144;17.098;2023-02-21T21:46:00;10.40;66.10
17998;DHT22;9124;48.144;17.098;2023-02-21T21:49:36;10.40;66.40
17998;DHT22;9124;48.144;17.098;2023-02-21T21:53:13;10.40;66.50
17998;DHT22;9124;48.144;17.098;2023-02-21T21:56:50;10.40;66.50
17998;DHT22;9124;48.144;17.098;2023-02-21T22:00:29;10.30;66.60
17998;DHT22;9124;48.144;17.098;2023-02-21T22:04:07;10.20;66.70
17998;DHT22;9124;48.144;17.098;2023-02-21T22:07:48;10.10;66.80
17998;DHT22;9124;48.144;17.098;2023-02-21T22:11:27;9.90;66.90
17998;DHT22;9124;48.144;17.098;2023-02-21T22:15:05;9.70;67.10
17998;DHT22;9124;48.144;17.098;2023-02-21T22:18:41;9.70;67.40
17998;DHT22;9124;48.144;17.098;2023-02-21T22:22:18;9.60;67.40
17998;DHT22;9124;48.144;17.098;2023-02-21T22:25:54;9.60;67.50
17998;DHT22;9124;48.144;17.098;2023-02-21T22:29:32;9.50;67.60
17998;DHT22;9124;48.144;17.098;2023-02-21T22:33:09;9.50;67.70
17998;DHT22;9124;48.144;17.098;2023-02-21T22:36:50;9.50;67.80
17998;DHT22;9124;48.144;17.098;2023-02-21T22:40:29;9.40;67.90
17998;DHT22;9124;48.144;17.098;2023-02-21T22:44:06;9.40;68.00
17998;DHT22;9124;48.144;17.098;2023-02-21T22:47:42;9.40;68.10
17998;DHT22;9124;48.144;17.098;2023-02-21T22:51:26;9.30;68.20
17998;DHT22;9124;48.144;17.098;2023-02-21T22:55:03;9.30;68.40
17998;DHT22;9124;48.144;17.098;2023-02-21T22:58:40;9.20;68.40
17998;DHT22;9124;48.144;17.098;2023-02-21T23:02:16;9.10;68.60
17998;DHT22;9124;48.144;17.098;2023-02-21T23:05:53;8.90;68.60
17998;DHT22;9124;48.144;17.098;2023-02-21T23:09:35;8.80;68.80
17998;DHT22;9124;48.144;17.098;2023-02-21T23:13:16;8.70;69.10
17998;DHT22;9124;48.144;17.098;2023-02-21T23:16:56;8.80;69.50
17998;DHT22;9124;48.144;17.098;2023-02-21T23:20:33;8.80;69.70
17998;DHT22;9124;48.144;17.098;2023-02-21T23:24:09;8.80;69.80
17998;DHT22;9124;48.144;17.098;2023-02-21T23:27:51;8.90;70.20
17998;DHT22;9124;48.144;17.098;2023-02-21T23:31:30;8.90;70.40
17998;DHT22;9124;48.144;17.098;2023-02-21T23:35:06;8.90;70.40
17998;DHT22;9124;48.144;17.098;2023-02-21T23:38:42;8.90;70.50
17998;DHT22;9124;48.144;17.098;2023-02-21T23:42:21;8.80;70.60
17998;DHT22;9124;48.144;17.098;2023-02-21T23:45:59;8.70;70.70
17998;DHT22;9124;48.144;17.098;2023-02-21T23:49:35;8.60;70.90
17998;DHT22;9124;48.144;17.098;2023-02-21T23:53:20;8.50;71.10
17998;DHT22;9124;48.144;17.098;2023-02-21T23:56:58;8.50;71.30
